createdAt,value
2022-09-12T00:01:17.302Z,17.00
2022-09-12T00:03:45.450Z,17.10
2022-09-12T00:06:24.787Z,17.00
2022-09-12T00:08:55.982Z,17.00
2022-09-12T00:11:23.567Z,16.90
2022-09-12T00:13:50.962Z,16.90
2022-09-12T00:16:22.357Z,16.90
2022-09-12T00:18:50.467Z,17.00
2022-09-12T00:21:18.604Z,17.00
2022-09-12T00:23:46.611Z,17.00
2022-09-12T00:26:14.954Z,17.00
2022-09-12T00:28:42.606Z,17.00
2022-09-12T00:31:13.659Z,17.00
2022-09-12T00:33:42.853Z,17.00
2022-09-12T00:36:14.896Z,17.00
2022-09-12T00:38:43.639Z,16.90
2022-09-12T00:41:26.843Z,16.90
2022-09-12T00:44:10.895Z,16.90
2022-09-12T00:46:41.849Z,16.90
2022-09-12T00:49:54.416Z,16.80
2022-09-12T00:52:31.599Z,16.90
2022-09-12T00:55:10.778Z,16.80
2022-09-12T00:57:47.506Z,16.80
2022-09-12T01:00:17.421Z,17.00
2022-09-12T01:02:51.612Z,16.90
2022-09-12T01:05:19.919Z,16.90
2022-09-12T01:07:48.968Z,16.80
2022-09-12T01:10:17.282Z,16.80
2022-09-12T01:12:44.785Z,16.80
2022-09-12T01:15:12.427Z,16.80
2022-09-12T01:18:09.326Z,16.70
2022-09-12T01:21:00.172Z,16.70
2022-09-12T01:23:48.540Z,16.70
2022-09-12T01:26:53.184Z,16.70
2022-09-12T01:29:39.146Z,16.70
2022-09-12T01:32:26.830Z,16.70
2022-09-12T01:35:21.445Z,16.80
2022-09-12T01:37:49.523Z,16.80
2022-09-12T01:40:41.639Z,16.90
2022-09-12T01:43:18.376Z,16.90
2022-09-12T01:45:59.853Z,17.00
2022-09-12T01:48:33.231Z,17.00
2022-09-12T01:51:11.151Z,17.10
2022-09-12T01:53:44.420Z,17.10
2022-09-12T01:56:26.525Z,17.10
2022-09-12T01:59:05.252Z,17.20
2022-09-12T02:01:36.568Z,17.30
2022-09-12T02:04:30.022Z,17.40
2022-09-12T02:07:06.921Z,17.40
2022-09-12T02:09:46.441Z,17.50
2022-09-12T02:12:18.503Z,17.50
2022-09-12T02:14:52.568Z,17.50
2022-09-12T02:17:23.592Z,17.50
2022-09-12T02:19:57.441Z,17.50
2022-09-12T02:22:29.360Z,17.60
2022-09-12T02:25:01.130Z,17.60
2022-09-12T02:27:37.823Z,17.60
2022-09-12T02:30:06.963Z,17.60
2022-09-12T02:32:43.950Z,17.60
2022-09-12T02:35:34.875Z,17.60
2022-09-12T02:38:13.180Z,17.70
2022-09-12T02:40:41.401Z,17.70
2022-09-12T02:43:09.178Z,17.60
2022-09-12T02:45:37.170Z,17.60
2022-09-12T02:48:21.312Z,17.60
2022-09-12T02:50:48.773Z,17.60
2022-09-12T02:53:18.105Z,17.60
2022-09-12T02:55:45.968Z,17.60
2022-09-12T02:58:24.687Z,17.60
2022-09-12T03:01:11.184Z,17.60
2022-09-12T03:03:52.992Z,17.60
2022-09-12T03:06:37.255Z,17.60
2022-09-12T03:09:19.226Z,17.60
2022-09-12T03:12:11.912Z,17.60
2022-09-12T03:15:17.524Z,17.60
2022-09-12T03:17:54.124Z,17.60
2022-09-12T03:20:45.543Z,17.60
2022-09-12T03:23:38.605Z,17.50
2022-09-12T03:26:13.580Z,17.50
2022-09-12T03:28:42.635Z,17.50
2022-09-12T03:31:15.742Z,17.50
2022-09-12T03:33:43.669Z,17.50
2022-09-12T03:36:37.172Z,17.50
2022-09-12T03:39:04.566Z,17.60
2022-09-12T03:41:31.916Z,17.60
2022-09-12T03:43:59.601Z,17.60
2022-09-12T03:46:27.027Z,17.60
2022-09-12T03:48:54.371Z,17.60
2022-09-12T03:51:22.040Z,17.70
2022-09-12T03:53:49.509Z,17.70
2022-09-12T03:56:18.535Z,17.80
2022-09-12T03:58:46.024Z,17.80
2022-09-12T04:01:16.417Z,17.80
2022-09-12T04:03:45.539Z,17.80
2022-09-12T04:06:15.330Z,17.90
2022-09-12T04:08:44.092Z,17.90
2022-09-12T04:11:14.340Z,17.90
2022-09-12T04:13:44.036Z,17.80
2022-09-12T04:16:12.897Z,17.80
2022-09-12T04:18:40.588Z,17.80
2022-09-12T04:21:13.441Z,17.80
2022-09-12T04:23:40.906Z,17.70
2022-09-12T04:26:08.727Z,17.70
2022-09-12T04:28:38.213Z,17.70
2022-09-12T04:31:12.302Z,17.60
2022-09-12T04:33:40.020Z,17.60
2022-09-12T04:36:09.988Z,17.60
2022-09-12T04:38:37.865Z,17.60
2022-09-12T04:41:23.887Z,17.60
2022-09-12T04:43:59.180Z,17.60
2022-09-12T04:46:27.339Z,17.60
2022-09-12T04:48:57.059Z,17.60
2022-09-12T04:51:31.052Z,17.50
2022-09-12T04:54:01.001Z,17.50
2022-09-12T04:56:29.676Z,17.50
2022-09-12T04:58:58.958Z,17.50
2022-09-12T05:01:28.383Z,17.50
2022-09-12T05:03:56.729Z,17.50
2022-09-12T05:06:26.894Z,17.50
2022-09-12T05:08:56.100Z,17.40
2022-09-12T05:11:33.024Z,17.40
2022-09-12T05:14:09.924Z,17.40
2022-09-12T05:16:37.731Z,17.40
2022-09-12T05:19:05.082Z,17.40
2022-09-12T05:21:32.544Z,17.30
2022-09-12T05:24:00.157Z,17.30
2022-09-12T05:26:28.026Z,17.30
2022-09-12T05:28:55.787Z,17.30
2022-09-12T05:31:25.423Z,17.30
2022-09-12T05:33:54.391Z,17.30
2022-09-12T05:36:27.456Z,17.30
2022-09-12T05:38:55.003Z,17.40
2022-09-12T05:41:25.204Z,17.40
2022-09-12T05:43:57.968Z,17.40
2022-09-12T05:46:27.554Z,17.50
2022-09-12T05:48:56.847Z,17.50
2022-09-12T05:51:26.664Z,17.50
2022-09-12T05:53:56.856Z,17.50
2022-09-12T05:56:29.088Z,17.60
2022-09-12T05:59:05.362Z,17.60
2022-09-12T06:01:34.571Z,17.60
2022-09-12T06:04:04.639Z,17.60
2022-09-12T06:06:35.262Z,17.70
2022-09-12T06:09:04.515Z,17.70
2022-09-12T06:11:34.208Z,17.70
2022-09-12T06:14:01.786Z,17.80
2022-09-12T06:16:31.419Z,17.80
2022-09-12T06:19:04.791Z,17.80
2022-09-12T06:21:32.452Z,17.80
2022-09-12T06:24:00.101Z,17.80
2022-09-12T06:26:29.280Z,17.80
2022-09-12T06:28:58.115Z,17.90
2022-09-12T06:31:31.513Z,17.90
2022-09-12T06:34:02.439Z,17.90
2022-09-12T06:36:31.367Z,17.90
2022-09-12T06:39:01.301Z,17.90
2022-09-12T06:41:29.923Z,18.00
2022-09-12T06:43:58.163Z,18.00
2022-09-12T06:46:26.647Z,18.00
2022-09-12T06:48:56.381Z,18.00
2022-09-12T06:51:24.569Z,18.00
2022-09-12T06:53:54.627Z,18.10
2022-09-12T06:56:24.132Z,18.10
2022-09-12T06:58:52.556Z,18.10
2022-09-12T07:01:22.295Z,18.20
2022-09-12T07:03:55.841Z,18.20
2022-09-12T07:06:29.879Z,18.20
2022-09-12T07:09:01.812Z,18.20
2022-09-12T07:11:32.560Z,18.20
2022-09-12T07:14:02.249Z,18.30
2022-09-12T07:16:30.379Z,18.40
2022-09-12T07:19:00.410Z,18.40
2022-09-12T07:21:28.912Z,18.40
2022-09-12T07:23:58.063Z,18.50
2022-09-12T07:26:27.603Z,18.50
2022-09-12T07:29:07.842Z,18.60
2022-09-12T07:31:40.445Z,18.70
2022-09-12T07:34:07.960Z,18.70
2022-09-12T07:36:35.556Z,18.70
2022-09-12T07:39:03.505Z,18.70
2022-09-12T07:41:33.952Z,18.70
2022-09-12T07:44:03.442Z,18.70
2022-09-12T07:46:31.558Z,18.70
2022-09-12T07:49:00.754Z,18.70
2022-09-12T07:51:30.219Z,18.80
2022-09-12T07:53:57.799Z,18.90
2022-09-12T07:56:30.121Z,18.80
2022-09-12T07:58:58.903Z,18.80
2022-09-12T08:01:26.959Z,18.90
2022-09-12T08:03:57.191Z,19.00
2022-09-12T08:06:25.714Z,19.00
2022-09-12T08:08:55.613Z,19.00
2022-09-12T08:11:25.048Z,19.00
2022-09-12T08:13:55.777Z,19.10
2022-09-12T08:16:26.741Z,19.00
2022-09-12T08:18:54.491Z,19.00
2022-09-12T08:21:24.414Z,19.00
2022-09-12T08:23:54.127Z,19.10
2022-09-12T08:26:21.896Z,19.10
2022-09-12T08:28:49.631Z,19.20
2022-09-12T08:31:20.600Z,19.30
2022-09-12T08:33:48.217Z,19.50
2022-09-12T08:36:17.879Z,19.60
2022-09-12T08:38:46.739Z,19.70
2022-09-12T08:41:41.211Z,19.90
2022-09-12T08:44:17.629Z,20.00
2022-09-12T08:46:53.522Z,20.10
2022-09-12T08:49:29.721Z,20.10
2022-09-12T08:52:01.562Z,20.10
2022-09-12T08:54:31.303Z,20.10
2022-09-12T08:57:03.596Z,20.10
2022-09-12T08:59:44.801Z,20.10
2022-09-12T09:02:15.200Z,20.10
2022-09-12T09:05:03.323Z,20.20
2022-09-12T09:08:15.998Z,20.20
2022-09-12T09:11:01.391Z,20.10
2022-09-12T09:14:15.387Z,20.20
2022-09-12T09:16:45.153Z,20.20
2022-09-12T09:19:26.712Z,20.30
2022-09-12T09:21:58.955Z,20.30
2022-09-12T09:24:40.674Z,20.40
2022-09-12T09:27:40.344Z,20.60
2022-09-12T09:30:15.526Z,20.70
2022-09-12T09:32:47.692Z,20.80
2022-09-12T09:35:18.945Z,20.90
2022-09-12T09:37:58.804Z,21.00
2022-09-12T09:40:38.315Z,21.00
2022-09-12T09:43:23.087Z,21.00
2022-09-12T09:45:52.675Z,21.00
2022-09-12T09:48:33.757Z,21.00
2022-09-12T09:51:07.285Z,21.00
2022-09-12T09:53:46.948Z,21.00
2022-09-12T09:56:23.142Z,21.00
2022-09-12T09:58:50.681Z,21.00
2022-09-12T10:01:19.334Z,21.10
2022-09-12T10:03:55.397Z,21.20
2022-09-12T10:06:32.191Z,21.40
2022-09-12T10:09:13.214Z,21.50
2022-09-12T10:11:45.685Z,21.70
2022-09-12T10:14:38.472Z,21.90
2022-09-12T10:17:28.701Z,22.00
2022-09-12T10:20:19.765Z,21.90
2022-09-12T10:22:48.229Z,21.90
2022-09-12T10:25:18.634Z,22.00
2022-09-12T10:27:59.412Z,22.10
2022-09-12T10:30:28.558Z,22.20
2022-09-12T10:33:07.355Z,22.20
2022-09-12T10:35:46.146Z,22.40
2022-09-12T10:38:28.536Z,22.50
2022-09-12T10:41:16.183Z,22.70
2022-09-12T10:43:43.761Z,22.70
2022-09-12T10:46:21.984Z,22.60
2022-09-12T10:48:51.539Z,22.60
2022-09-12T10:51:25.062Z,22.60
2022-09-12T10:53:56.588Z,22.60
2022-09-12T10:56:50.221Z,22.70
2022-09-12T10:59:41.332Z,22.70
2022-09-12T11:02:28.470Z,22.70
2022-09-12T11:05:10.828Z,22.80
2022-09-12T11:07:40.974Z,22.90
2022-09-12T11:10:27.054Z,22.90
2022-09-12T11:13:21.243Z,22.90
2022-09-12T11:16:20.000Z,22.90
2022-09-12T11:19:26.813Z,23.00
2022-09-12T11:21:57.296Z,23.30
2022-09-12T11:24:42.640Z,23.50
2022-09-12T11:27:10.001Z,23.70
2022-09-12T11:29:50.827Z,23.70
2022-09-12T11:32:41.445Z,23.90
2022-09-12T11:35:29.694Z,24.20
2022-09-12T11:38:00.526Z,24.30
2022-09-12T11:41:06.872Z,24.50
2022-09-12T11:43:43.136Z,24.60
2022-09-12T11:46:25.233Z,24.70
2022-09-12T11:49:05.246Z,24.50
2022-09-12T11:51:54.053Z,24.40
2022-09-12T11:55:03.823Z,24.40
2022-09-12T11:57:39.934Z,24.60
2022-09-12T12:00:40.083Z,24.90
2022-09-12T12:03:16.061Z,25.50
2022-09-12T12:06:04.198Z,25.70
2022-09-12T12:08:37.573Z,25.80
2022-09-12T12:11:08.107Z,25.50
2022-09-12T12:13:40.292Z,25.30
2022-09-12T12:16:11.751Z,25.00
2022-09-12T12:18:40.737Z,24.70
2022-09-12T12:21:29.319Z,24.70
2022-09-12T12:24:04.891Z,25.00
2022-09-12T12:26:41.276Z,25.70
2022-09-12T12:29:19.494Z,26.20
2022-09-12T12:32:04.804Z,26.60
2022-09-12T12:34:42.236Z,26.70
2022-09-12T12:37:22.090Z,27.00
2022-09-12T12:39:50.422Z,27.10
2022-09-12T12:42:35.581Z,27.70
2022-09-12T12:45:08.659Z,28.10
2022-09-12T12:47:39.367Z,28.00
2022-09-12T12:50:28.106Z,28.00
2022-09-12T12:53:28.032Z,28.10
2022-09-12T12:55:57.113Z,28.40
2022-09-12T12:58:40.708Z,28.40
2022-09-12T13:01:18.761Z,28.20
2022-09-12T13:04:01.328Z,28.30
2022-09-12T13:06:40.406Z,28.30
2022-09-12T13:09:19.749Z,28.20
2022-09-12T13:11:54.088Z,28.10
2022-09-12T13:14:42.452Z,27.60
2022-09-12T13:17:16.336Z,27.00
2022-09-12T13:19:44.401Z,26.50
2022-09-12T13:22:11.758Z,26.50
2022-09-12T13:24:48.957Z,26.90
2022-09-12T13:27:25.435Z,27.60
2022-09-12T13:30:13.548Z,27.60
2022-09-12T13:32:42.434Z,27.90
2022-09-12T13:35:25.771Z,28.10
2022-09-12T13:38:05.721Z,28.30
2022-09-12T13:41:09.940Z,28.60
2022-09-12T13:43:43.535Z,28.40
2022-09-12T13:46:17.680Z,28.90
2022-09-12T13:48:45.572Z,28.90
2022-09-12T13:51:26.040Z,28.50
2022-09-12T13:53:56.349Z,28.00
2022-09-12T13:56:23.755Z,27.80
2022-09-12T13:58:56.948Z,27.20
2022-09-12T14:01:39.773Z,26.90
2022-09-12T14:04:40.185Z,27.10
2022-09-12T14:07:22.235Z,27.40
2022-09-12T14:09:58.671Z,27.50
2022-09-12T14:12:39.142Z,27.60
2022-09-12T14:15:09.582Z,27.70
2022-09-12T14:17:39.414Z,27.60
2022-09-12T14:20:14.045Z,27.30
2022-09-12T14:22:41.741Z,27.00
2022-09-12T14:25:17.076Z,26.70
2022-09-12T14:27:50.711Z,26.50
2022-09-12T14:30:36.431Z,26.30
2022-09-12T14:33:09.844Z,26.10
2022-09-12T14:35:42.728Z,26.00
2022-09-12T14:38:16.743Z,26.00
2022-09-12T14:40:49.652Z,25.90
2022-09-12T14:43:30.453Z,25.90
2022-09-12T14:46:05.608Z,25.70
2022-09-12T14:48:37.056Z,25.60
2022-09-12T14:51:05.330Z,25.70
2022-09-12T14:53:36.189Z,25.70
2022-09-12T14:56:07.291Z,25.70
2022-09-12T14:58:35.446Z,25.70
2022-09-12T15:01:05.902Z,25.70
2022-09-12T15:03:37.390Z,25.60
2022-09-12T15:06:08.087Z,25.60
2022-09-12T15:08:35.678Z,25.50
2022-09-12T15:11:06.974Z,25.50
2022-09-12T15:13:40.299Z,25.40
2022-09-12T15:16:10.952Z,25.30
2022-09-12T15:18:38.342Z,25.30
2022-09-12T15:21:08.240Z,25.20
2022-09-12T15:23:45.748Z,25.20
2022-09-12T15:26:18.619Z,25.20
2022-09-12T15:28:46.280Z,25.20
2022-09-12T15:31:27.484Z,25.10
2022-09-12T15:33:56.318Z,25.00
2022-09-12T15:36:24.832Z,25.00
2022-09-12T15:38:53.159Z,25.00
2022-09-12T15:41:23.506Z,24.90
2022-09-12T15:43:50.988Z,24.80
2022-09-12T15:46:19.382Z,24.80
2022-09-12T15:48:46.811Z,24.80
2022-09-12T15:51:16.899Z,24.70
2022-09-12T15:53:45.367Z,24.70
2022-09-12T15:56:13.972Z,24.70
2022-09-12T15:58:57.132Z,24.60
2022-09-12T16:01:27.064Z,24.60
2022-09-12T16:03:54.590Z,24.50
2022-09-12T16:06:22.545Z,24.40
2022-09-12T16:08:49.914Z,24.40
2022-09-12T16:11:24.697Z,24.40
2022-09-12T16:13:53.959Z,24.40
2022-09-12T16:16:21.453Z,24.40
2022-09-12T16:18:48.933Z,24.40
2022-09-12T16:21:16.583Z,24.50
2022-09-12T16:23:45.134Z,24.50
2022-09-12T16:26:12.671Z,24.40
2022-09-12T16:28:40.323Z,24.40
2022-09-12T16:31:09.215Z,24.40
2022-09-12T16:33:38.477Z,24.40
2022-09-12T16:36:09.313Z,24.40
2022-09-12T16:38:44.103Z,24.50
2022-09-12T16:41:12.770Z,24.50
2022-09-12T16:43:40.824Z,24.60
2022-09-12T16:46:09.833Z,24.50
2022-09-12T16:48:38.045Z,24.40
2022-09-12T16:51:06.938Z,24.40
2022-09-12T16:53:37.386Z,24.30
2022-09-12T16:56:06.017Z,24.20
2022-09-12T16:58:38.512Z,24.10
2022-09-12T17:01:11.087Z,24.00
2022-09-12T17:03:38.877Z,23.90
2022-09-12T17:06:18.382Z,23.90
2022-09-12T17:08:48.610Z,23.80
2022-09-12T17:11:19.570Z,23.70
2022-09-12T17:14:03.913Z,23.70
2022-09-12T17:16:40.442Z,23.60
2022-09-12T17:19:08.678Z,23.60
2022-09-12T17:21:36.490Z,23.60
2022-09-12T17:24:04.478Z,23.50
2022-09-12T17:26:31.840Z,23.50
2022-09-12T17:28:59.320Z,23.40
2022-09-12T17:31:27.728Z,23.40
2022-09-12T17:33:59.105Z,23.40
2022-09-12T17:36:27.516Z,23.40
2022-09-12T17:38:55.054Z,23.30
2022-09-12T17:41:25.587Z,23.30
2022-09-12T17:43:57.727Z,23.30
2022-09-12T17:46:29.804Z,23.30
2022-09-12T17:48:58.569Z,23.20
2022-09-12T17:51:28.934Z,23.20
2022-09-12T17:54:05.577Z,23.20
2022-09-12T17:56:34.341Z,23.10
2022-09-12T17:59:02.054Z,23.10
2022-09-12T18:01:48.293Z,23.00
2022-09-12T18:04:16.539Z,23.00
2022-09-12T18:06:48.799Z,23.00
2022-09-12T18:09:19.622Z,23.00
2022-09-12T18:11:48.063Z,23.00
2022-09-12T18:14:16.007Z,23.00
2022-09-12T18:16:45.703Z,22.90
2022-09-12T18:19:13.737Z,22.90
2022-09-12T18:21:41.159Z,22.90
2022-09-12T18:24:09.647Z,22.90
2022-09-12T18:26:37.431Z,22.80
2022-09-12T18:29:05.864Z,22.80
2022-09-12T18:31:33.248Z,22.80
2022-09-12T18:34:01.086Z,22.80
2022-09-12T18:36:30.681Z,22.80
2022-09-12T18:38:59.305Z,22.80
2022-09-12T18:41:28.894Z,22.80
2022-09-12T18:44:00.547Z,22.80
2022-09-12T18:46:29.354Z,22.70
2022-09-12T18:48:58.005Z,22.70
2022-09-12T18:51:31.465Z,22.70
2022-09-12T18:54:01.412Z,22.70
2022-09-12T18:56:35.175Z,22.70
2022-09-12T18:59:05.360Z,22.70
2022-09-12T19:01:35.566Z,22.60
2022-09-12T19:04:07.739Z,22.60
2022-09-12T19:06:46.347Z,22.60
2022-09-12T19:09:16.408Z,22.60
2022-09-12T19:11:49.558Z,22.60
2022-09-12T19:14:19.643Z,22.50
2022-09-12T19:16:47.106Z,22.50
2022-09-12T19:19:14.548Z,22.50
2022-09-12T19:21:42.546Z,22.40
2022-09-12T19:24:10.904Z,22.40
2022-09-12T19:26:39.551Z,22.30
2022-09-12T19:29:07.952Z,22.30
2022-09-12T19:31:35.609Z,22.30
2022-09-12T19:34:05.381Z,22.20
2022-09-12T19:36:45.002Z,22.20
2022-09-12T19:39:13.523Z,22.20
2022-09-12T19:41:40.982Z,22.20
2022-09-12T19:44:08.387Z,22.20
2022-09-12T19:46:35.815Z,22.20
2022-09-12T19:49:03.772Z,22.20
2022-09-12T19:51:31.458Z,22.10
2022-09-12T19:53:58.831Z,22.10
2022-09-12T19:56:26.277Z,22.10
2022-09-12T19:58:56.622Z,22.00
2022-09-12T20:01:25.759Z,22.00
2022-09-12T20:03:53.873Z,22.00
2022-09-12T20:06:22.598Z,22.00
2022-09-12T20:08:50.097Z,21.90
2022-09-12T20:11:19.520Z,21.90
2022-09-12T20:13:47.517Z,21.80
2022-09-12T20:16:26.903Z,21.80
2022-09-12T20:19:03.210Z,21.70
2022-09-12T20:21:32.665Z,21.70
2022-09-12T20:24:02.553Z,21.60
2022-09-12T20:26:30.712Z,21.60
2022-09-12T20:28:58.237Z,21.50
2022-09-12T20:31:26.213Z,21.50
2022-09-12T20:33:55.045Z,21.40
2022-09-12T20:36:23.272Z,21.40
2022-09-12T20:38:56.971Z,21.40
2022-09-12T20:41:25.925Z,21.40
2022-09-12T20:43:54.957Z,21.40
2022-09-12T20:46:23.592Z,21.40
2022-09-12T20:48:52.295Z,21.40
2022-09-12T20:51:23.046Z,21.40
2022-09-12T20:53:53.391Z,21.30
2022-09-12T20:56:22.196Z,21.30
2022-09-12T20:58:50.629Z,21.30
2022-09-12T21:01:18.471Z,21.20
2022-09-12T21:03:47.445Z,21.20
2022-09-12T21:06:18.875Z,21.20
2022-09-12T21:08:48.520Z,21.20
2022-09-12T21:11:17.204Z,21.20
2022-09-12T21:13:44.769Z,21.20
2022-09-12T21:16:14.999Z,21.20
2022-09-12T21:18:42.935Z,21.20
2022-09-12T21:21:12.284Z,21.20
2022-09-12T21:23:40.387Z,21.20
2022-09-12T21:26:08.646Z,21.30
2022-09-12T21:28:36.612Z,21.20
2022-09-12T21:31:04.390Z,21.20
2022-09-12T21:33:31.889Z,21.10
2022-09-12T21:36:03.829Z,21.10
2022-09-12T21:38:32.379Z,21.10
2022-09-12T21:41:10.587Z,21.10
2022-09-12T21:43:38.885Z,21.00
2022-09-12T21:46:09.717Z,21.00
2022-09-12T21:48:37.619Z,21.00
2022-09-12T21:51:05.695Z,21.00
2022-09-12T21:53:33.174Z,21.00
2022-09-12T21:56:02.561Z,21.00
2022-09-12T21:58:30.007Z,20.90
2022-09-12T22:00:57.493Z,20.90
2022-09-12T22:03:26.103Z,20.90
2022-09-12T22:06:01.628Z,20.90
2022-09-12T22:08:31.002Z,20.90
2022-09-12T22:11:03.409Z,20.90
2022-09-12T22:13:32.245Z,20.90
2022-09-12T22:16:02.824Z,20.80
2022-09-12T22:18:33.972Z,20.80
2022-09-12T22:21:12.455Z,20.70
2022-09-12T22:23:58.330Z,20.70
2022-09-12T22:26:27.015Z,20.80
2022-09-12T22:28:54.632Z,20.80
2022-09-12T22:31:22.692Z,20.70
2022-09-12T22:33:51.479Z,20.70
2022-09-12T22:36:18.874Z,20.60
2022-09-12T22:38:46.412Z,20.60
2022-09-12T22:41:13.798Z,20.60
2022-09-12T22:43:41.393Z,20.50
2022-09-12T22:46:12.390Z,20.50
2022-09-12T22:48:40.733Z,20.50
2022-09-12T22:51:09.002Z,20.50
2022-09-12T22:53:37.066Z,20.50
2022-09-12T22:56:05.189Z,20.50
2022-09-12T22:58:34.089Z,20.50
2022-09-12T23:01:01.476Z,20.50
2022-09-12T23:03:28.946Z,20.40
2022-09-12T23:05:56.387Z,20.50
2022-09-12T23:08:24.117Z,20.40
2022-09-12T23:10:51.784Z,20.30
2022-09-12T23:13:19.160Z,20.30
2022-09-12T23:15:46.564Z,20.30
2022-09-12T23:18:13.957Z,20.30
2022-09-12T23:20:41.356Z,20.20
2022-09-12T23:23:09.673Z,20.20
2022-09-12T23:25:37.273Z,20.20
2022-09-12T23:28:04.619Z,20.20
2022-09-12T23:30:32.052Z,20.30
2022-09-12T23:32:59.472Z,20.30
2022-09-12T23:35:26.827Z,20.30
2022-09-12T23:37:54.175Z,20.20
2022-09-12T23:40:21.585Z,20.30
2022-09-12T23:42:49.088Z,20.30
2022-09-12T23:45:16.550Z,20.30
2022-09-12T23:47:43.919Z,20.30
2022-09-12T23:50:11.263Z,20.30
2022-09-12T23:52:40.205Z,20.30
2022-09-12T23:55:08.756Z,20.30
2022-09-12T23:57:35.990Z,20.30
